sensor_id;sensor_type;location;lat;lon;timestamp;temperature;humidity
12761;DHT22;6444;49.742;6.114;2024-01-10T00:02:01;-1.50;99.90
12761;DHT22;6444;49.742;6.114;2024-01-10T00:04:28;-1.40;99.90
12761;DHT22;6444;49.742;6.114;2024-01-10T00:06:54;-1.10;99.90
12761;DHT22;6444;49.742;6.114;2024-01-10T00:09:20;-1.00;99.90
12761;DHT22;6444;49.742;6.114;2024-01-10T00:11:47;-0.80;99.90
12761;DHT22;6444;49.742;6.114;2024-01-10T00:14:14;-0.70;99.90
12761;DHT22;6444;49.742;6.114;2024-01-10T00:16:41;-0.70;99.90
12761;DHT22;6444;49.742;6.114;2024-01-10T00:19:08;-0.60;99.90
12761;DHT22;6444;49.742;6.114;2024-01-10T00:21:34;-0.60;99.90
12761;DHT22;6444;49.742;6.114;2024-01-10T00:24:02;-0.60;99.90
12761;DHT22;6444;49.742;6.114;2024-01-10T00:26:29;-0.70;99.90
12761;DHT22;6444;49.742;6.114;2024-01-10T00:28:56;-0.60;99.90
12761;DHT22;6444;49.742;6.114;2024-01-10T00:31:22;-0.50;99.90
12761;DHT22;6444;49.742;6.114;2024-01-10T00:33:50;-0.50;99.90
12761;DHT22;6444;49.742;6.114;2024-01-10T00:36:16;-0.60;99.90
12761;DHT22;6444;49.742;6.114;2024-01-10T00:38:43;-0.70;99.90
12761;DHT22;6444;49.742;6.114;2024-01-10T00:41:10;-0.60;99.90
12761;DHT22;6444;49.742;6.114;2024-01-10T00:43:37;-1.00;99.90
12761;DHT22;6444;49.742;6.114;2024-01-10T00:46:04;-1.00;99.90
12761;DHT22;6444;49.742;6.114;2024-01-10T00:48:30;-0.90;99.90
12761;DHT22;6444;49.742;6.114;2024-01-10T00:50:57;-1.10;99.90
12761;DHT22;6444;49.742;6.114;2024-01-10T00:53:23;-1.80;99.90
12761;DHT22;6444;49.742;6.114;2024-01-10T00:55:50;-2.00;99.90
12761;DHT22;6444;49.742;6.114;2024-01-10T00:58:17;-1.80;99.90
12761;DHT22;6444;49.742;6.114;2024-01-10T01:00:43;-2.00;99.90
12761;DHT22;6444;49.742;6.114;2024-01-10T01:03:10;-2.40;99.90
12761;DHT22;6444;49.742;6.114;2024-01-10T01:05:37;-1.80;99.90
12761;DHT22;6444;49.742;6.114;2024-01-10T01:08:04;-1.90;99.90
12761;DHT22;6444;49.742;6.114;2024-01-10T01:10:31;-1.70;99.90
12761;DHT22;6444;49.742;6.114;2024-01-10T01:12:57;-1.50;99.90
12761;DHT22;6444;49.742;6.114;2024-01-10T01:15:24;-1.70;99.90
12761;DHT22;6444;49.742;6.114;2024-01-10T01:17:51;-1.50;99.90
12761;DHT22;6444;49.742;6.114;2024-01-10T01:20:18;-1.20;99.90
12761;DHT22;6444;49.742;6.114;2024-01-10T01:22:45;-1.30;99.90
12761;DHT22;6444;49.742;6.114;2024-01-10T01:25:11;-1.20;99.90
12761;DHT22;6444;49.742;6.114;2024-01-10T01:27:38;-1.20;99.90
12761;DHT22;6444;49.742;6.114;2024-01-10T01:30:06;-1.50;99.90
12761;DHT22;6444;49.742;6.114;2024-01-10T01:32:32;-1.50;99.90
12761;DHT22;6444;49.742;6.114;2024-01-10T01:34:59;-1.30;99.90
12761;DHT22;6444;49.742;6.114;2024-01-10T01:37:25;-1.70;99.90
12761;DHT22;6444;49.742;6.114;2024-01-10T01:39:52;-1.70;99.90
12761;DHT22;6444;49.742;6.114;2024-01-10T01:42:19;-1.30;99.90
12761;DHT22;6444;49.742;6.114;2024-01-10T01:44:46;-1.30;99.90
12761;DHT22;6444;49.742;6.114;2024-01-10T01:47:13;-1.00;99.90
12761;DHT22;6444;49.742;6.114;2024-01-10T01:49:39;-1.20;99.90
12761;DHT22;6444;49.742;6.114;2024-01-10T01:52:06;-0.90;99.90
12761;DHT22;6444;49.742;6.114;2024-01-10T01:54:33;-0.90;99.90
12761;DHT22;6444;49.742;6.114;2024-01-10T01:56:59;-0.90;99.90
12761;DHT22;6444;49.742;6.114;2024-01-10T01:59:26;-0.80;99.90
12761;DHT22;6444;49.742;6.114;2024-01-10T02:01:53;-0.90;99.90
12761;DHT22;6444;49.742;6.114;2024-01-10T02:04:20;-0.80;99.90
12761;DHT22;6444;49.742;6.114;2024-01-10T02:06:47;-0.90;99.90
12761;DHT22;6444;49.742;6.114;2024-01-10T02:09:13;-0.80;99.90
12761;DHT22;6444;49.742;6.114;2024-01-10T02:11:40;-0.60;99.90
12761;DHT22;6444;49.742;6.114;2024-01-10T02:14:06;-0.50;99.90
12761;DHT22;6444;49.742;6.114;2024-01-10T02:16:34;-0.60;99.90
12761;DHT22;6444;49.742;6.114;2024-01-10T02:19:00;-0.60;99.90
12761;DHT22;6444;49.742;6.114;2024-01-10T02:21:27;-1.20;99.90
12761;DHT22;6444;49.742;6.114;2024-01-10T02:23:54;-0.90;99.90
12761;DHT22;6444;49.742;6.114;2024-01-10T02:26:21;-0.70;99.90
12761;DHT22;6444;49.742;6.114;2024-01-10T02:28:48;-0.70;99.90
12761;DHT22;6444;49.742;6.114;2024-01-10T02:31:14;-0.60;99.90
12761;DHT22;6444;49.742;6.114;2024-01-10T02:33:41;-0.50;99.90
12761;DHT22;6444;49.742;6.114;2024-01-10T02:36:08;-1.00;99.90
12761;DHT22;6444;49.742;6.114;2024-01-10T02:38:35;-1.00;99.90
12761;DHT22;6444;49.742;6.114;2024-01-10T02:41:02;-1.10;99.90
12761;DHT22;6444;49.742;6.114;2024-01-10T02:43:28;-1.00;99.90
12761;DHT22;6444;49.742;6.114;2024-01-10T02:45:56;-1.20;99.90
12761;DHT22;6444;49.742;6.114;2024-01-10T02:48:22;-1.20;99.90
12761;DHT22;6444;49.742;6.114;2024-01-10T02:50:49;-1.00;99.90
12761;DHT22;6444;49.742;6.114;2024-01-10T02:53:15;-0.90;99.90
12761;DHT22;6444;49.742;6.114;2024-01-10T02:55:43;-1.00;99.90
12761;DHT22;6444;49.742;6.114;2024-01-10T02:58:09;-1.40;99.90
12761;DHT22;6444;49.742;6.114;2024-01-10T03:00:36;-1.50;99.90
12761;DHT22;6444;49.742;6.114;2024-01-10T03:03:03;-1.40;99.90
12761;DHT22;6444;49.742;6.114;2024-01-10T03:05:29;-1.40;99.90
12761;DHT22;6444;49.742;6.114;2024-01-10T03:07:56;-1.40;99.90
12761;DHT22;6444;49.742;6.114;2024-01-10T03:10:23;-1.20;99.90
12761;DHT22;6444;49.742;6.114;2024-01-10T03:12:49;-1.20;99.90
12761;DHT22;6444;49.742;6.114;2024-01-10T03:15:16;-1.50;99.90
12761;DHT22;6444;49.742;6.114;2024-01-10T03:17:43;-2.10;99.90
12761;DHT22;6444;49.742;6.114;2024-01-10T03:20:09;-2.10;99.90
12761;DHT22;6444;49.742;6.114;2024-01-10T03:22:37;-2.00;99.90
12761;DHT22;6444;49.742;6.114;2024-01-10T03:25:03;-2.00;99.90
12761;DHT22;6444;49.742;6.114;2024-01-10T03:27:30;-1.60;99.90
12761;DHT22;6444;49.742;6.114;2024-01-10T03:29:57;-1.40;99.90
12761;DHT22;6444;49.742;6.114;2024-01-10T03:32:23;-1.30;99.90
12761;DHT22;6444;49.742;6.114;2024-01-10T03:34:50;-1.60;99.90
12761;DHT22;6444;49.742;6.114;2024-01-10T03:37:17;-1.90;99.90
12761;DHT22;6444;49.742;6.114;2024-01-10T03:39:44;-1.90;99.90
12761;DHT22;6444;49.742;6.114;2024-01-10T03:42:11;-2.50;99.90
12761;DHT22;6444;49.742;6.114;2024-01-10T03:44:37;-2.20;99.90
12761;DHT22;6444;49.742;6.114;2024-01-10T03:47:04;-2.70;99.90
12761;DHT22;6444;49.742;6.114;2024-01-10T03:49:30;-2.20;99.90
12761;DHT22;6444;49.742;6.114;2024-01-10T03:51:57;-1.90;99.90
12761;DHT22;6444;49.742;6.114;2024-01-10T03:54:24;-1.70;99.90
12761;DHT22;6444;49.742;6.114;2024-01-10T03:56:50;-1.40;99.90
12761;DHT22;6444;49.742;6.114;2024-01-10T03:59:18;-3.10;99.90
12761;DHT22;6444;49.742;6.114;2024-01-10T04:01:44;-3.20;99.90
12761;DHT22;6444;49.742;6.114;2024-01-10T04:04:11;-4.00;99.90
12761;DHT22;6444;49.742;6.114;2024-01-10T04:06:38;-3.60;99.90
12761;DHT22;6444;49.742;6.114;2024-01-10T04:09:05;-2.20;99.90
12761;DHT22;6444;49.742;6.114;2024-01-10T04:11:32;-2.20;99.90
12761;DHT22;6444;49.742;6.114;2024-01-10T04:13:58;-1.70;99.90
12761;DHT22;6444;49.742;6.114;2024-01-10T04:16:25;-1.20;99.90
12761;DHT22;6444;49.742;6.114;2024-01-10T04:18:52;-0.80;99.90
12761;DHT22;6444;49.742;6.114;2024-01-10T04:21:19;-0.80;99.90
12761;DHT22;6444;49.742;6.114;2024-01-10T04:23:46;-0.60;99.90
12761;DHT22;6444;49.742;6.114;2024-01-10T04:26:12;-0.50;99.90
12761;DHT22;6444;49.742;6.114;2024-01-10T04:28:39;-0.40;99.90
12761;DHT22;6444;49.742;6.114;2024-01-10T04:31:06;-0.50;99.90
12761;DHT22;6444;49.742;6.114;2024-01-10T04:33:33;-0.50;99.90
12761;DHT22;6444;49.742;6.114;2024-01-10T04:35:59;-0.20;99.90
12761;DHT22;6444;49.742;6.114;2024-01-10T04:38:26;-0.10;99.90
12761;DHT22;6444;49.742;6.114;2024-01-10T04:40:53;-0.40;99.90
12761;DHT22;6444;49.742;6.114;2024-01-10T04:43:20;0.00;99.90
12761;DHT22;6444;49.742;6.114;2024-01-10T04:45:47;0.00;99.90
12761;DHT22;6444;49.742;6.114;2024-01-10T04:48:13;-0.40;99.90
12761;DHT22;6444;49.742;6.114;2024-01-10T04:50:40;-1.10;99.90
12761;DHT22;6444;49.742;6.114;2024-01-10T04:53:07;-0.40;99.90
12761;DHT22;6444;49.742;6.114;2024-01-10T04:55:35;-0.10;99.90
12761;DHT22;6444;49.742;6.114;2024-01-10T04:58:01;-0.20;99.90
12761;DHT22;6444;49.742;6.114;2024-01-10T05:00:28;0.00;99.90
12761;DHT22;6444;49.742;6.114;2024-01-10T05:02:55;-0.10;99.90
12761;DHT22;6444;49.742;6.114;2024-01-10T05:05:22;-0.20;99.90
12761;DHT22;6444;49.742;6.114;2024-01-10T05:07:49;-0.30;99.90
12761;DHT22;6444;49.742;6.114;2024-01-10T05:10:15;-0.10;99.90
12761;DHT22;6444;49.742;6.114;2024-01-10T05:12:42;0.10;99.90
12761;DHT22;6444;49.742;6.114;2024-01-10T05:15:08;0.10;99.90
12761;DHT22;6444;49.742;6.114;2024-01-10T05:17:35;0.10;99.90
12761;DHT22;6444;49.742;6.114;2024-01-10T05:20:02;0.30;99.90
12761;DHT22;6444;49.742;6.114;2024-01-10T05:22:28;0.10;99.90
12761;DHT22;6444;49.742;6.114;2024-01-10T05:24:55;-0.10;99.90
12761;DHT22;6444;49.742;6.114;2024-01-10T05:27:22;0.10;99.90
12761;DHT22;6444;49.742;6.114;2024-01-10T05:29:48;-0.20;99.90
12761;DHT22;6444;49.742;6.114;2024-01-10T05:32:15;-0.10;99.90
12761;DHT22;6444;49.742;6.114;2024-01-10T05:34:41;-0.10;99.90
12761;DHT22;6444;49.742;6.114;2024-01-10T05:37:08;0.20;99.90
12761;DHT22;6444;49.742;6.114;2024-01-10T05:39:35;0.30;99.90
12761;DHT22;6444;49.742;6.114;2024-01-10T05:42:01;0.40;99.90
12761;DHT22;6444;49.742;6.114;2024-01-10T05:44:31;0.30;99.90
12761;DHT22;6444;49.742;6.114;2024-01-10T05:46:58;0.30;99.90
12761;DHT22;6444;49.742;6.114;2024-01-10T05:49:25;0.40;99.90
12761;DHT22;6444;49.742;6.114;2024-01-10T05:51:51;0.40;99.90
12761;DHT22;6444;49.742;6.114;2024-01-10T05:54:18;0.40;99.90
12761;DHT22;6444;49.742;6.114;2024-01-10T05:56:44;0.20;99.90
12761;DHT22;6444;49.742;6.114;2024-01-10T05:59:11;0.20;99.90
12761;DHT22;6444;49.742;6.114;2024-01-10T06:01:37;0.30;99.90
12761;DHT22;6444;49.742;6.114;2024-01-10T06:04:07;0.40;99.90
12761;DHT22;6444;49.742;6.114;2024-01-10T06:06:33;0.40;99.90
12761;DHT22;6444;49.742;6.114;2024-01-10T06:09:00;0.10;99.90
12761;DHT22;6444;49.742;6.114;2024-01-10T06:11:27;0.30;99.90
12761;DHT22;6444;49.742;6.114;2024-01-10T06:13:53;0.10;99.90
12761;DHT22;6444;49.742;6.114;2024-01-10T06:16:21;0.40;99.90
12761;DHT22;6444;49.742;6.114;2024-01-10T06:18:47;0.30;99.90
12761;DHT22;6444;49.742;6.114;2024-01-10T06:21:14;0.50;99.90
12761;DHT22;6444;49.742;6.114;2024-01-10T06:23:41;0.70;99.90
12761;DHT22;6444;49.742;6.114;2024-01-10T06:26:09;0.60;99.90
12761;DHT22;6444;49.742;6.114;2024-01-10T06:28:35;0.80;99.90
12761;DHT22;6444;49.742;6.114;2024-01-10T06:31:01;0.90;99.90
12761;DHT22;6444;49.742;6.114;2024-01-10T06:33:29;0.90;99.90
12761;DHT22;6444;49.742;6.114;2024-01-10T06:35:55;0.80;99.90
12761;DHT22;6444;49.742;6.114;2024-01-10T06:38:22;0.80;99.90
12761;DHT22;6444;49.742;6.114;2024-01-10T06:40:49;0.90;99.90
12761;DHT22;6444;49.742;6.114;2024-01-10T06:43:16;0.80;99.90
12761;DHT22;6444;49.742;6.114;2024-01-10T06:45:43;0.50;99.90
12761;DHT22;6444;49.742;6.114;2024-01-10T06:48:10;0.30;99.90
12761;DHT22;6444;49.742;6.114;2024-01-10T06:50:37;0.30;99.90
12761;DHT22;6444;49.742;6.114;2024-01-10T06:53:03;0.10;99.90
12761;DHT22;6444;49.742;6.114;2024-01-10T06:55:30;0.30;99.90
12761;DHT22;6444;49.742;6.114;2024-01-10T06:57:56;0.30;99.90
12761;DHT22;6444;49.742;6.114;2024-01-10T07:00:23;0.30;99.90
12761;DHT22;6444;49.742;6.114;2024-01-10T07:02:50;0.30;99.90
12761;DHT22;6444;49.742;6.114;2024-01-10T07:05:16;0.20;99.90
12761;DHT22;6444;49.742;6.114;2024-01-10T07:07:43;0.10;99.90
12761;DHT22;6444;49.742;6.114;2024-01-10T07:10:10;0.00;99.90
12761;DHT22;6444;49.742;6.114;2024-01-10T07:12:36;-0.10;99.90
12761;DHT22;6444;49.742;6.114;2024-01-10T07:15:03;-0.30;99.90
12761;DHT22;6444;49.742;6.114;2024-01-10T07:17:29;-0.10;99.90
12761;DHT22;6444;49.742;6.114;2024-01-10T07:19:56;-0.10;99.90
12761;DHT22;6444;49.742;6.114;2024-01-10T07:22:23;-0.70;99.90
12761;DHT22;6444;49.742;6.114;2024-01-10T07:24:49;-0.60;99.90
12761;DHT22;6444;49.742;6.114;2024-01-10T07:27:16;-0.40;99.90
12761;DHT22;6444;49.742;6.114;2024-01-10T07:29:43;-0.20;99.90
12761;DHT22;6444;49.742;6.114;2024-01-10T07:32:09;-0.50;99.90
12761;DHT22;6444;49.742;6.114;2024-01-10T07:34:38;-0.70;99.90
12761;DHT22;6444;49.742;6.114;2024-01-10T07:37:05;-0.60;99.90
12761;DHT22;6444;49.742;6.114;2024-01-10T07:39:32;-0.40;99.90
12761;DHT22;6444;49.742;6.114;2024-01-10T07:41:59;-0.40;99.90
12761;DHT22;6444;49.742;6.114;2024-01-10T07:44:26;-0.50;99.90
12761;DHT22;6444;49.742;6.114;2024-01-10T07:46:52;-0.30;99.90
12761;DHT22;6444;49.742;6.114;2024-01-10T07:49:19;-0.20;99.90
12761;DHT22;6444;49.742;6.114;2024-01-10T07:51:46;-0.40;99.90
12761;DHT22;6444;49.742;6.114;2024-01-10T07:54:12;-0.20;99.90
12761;DHT22;6444;49.742;6.114;2024-01-10T07:56:39;-0.20;99.90
12761;DHT22;6444;49.742;6.114;2024-01-10T07:59:06;-0.40;99.90
12761;DHT22;6444;49.742;6.114;2024-01-10T08:01:32;-0.20;99.90
12761;DHT22;6444;49.742;6.114;2024-01-10T08:03:59;-0.10;99.90
12761;DHT22;6444;49.742;6.114;2024-01-10T08:06:25;0.10;99.90
12761;DHT22;6444;49.742;6.114;2024-01-10T08:08:52;0.20;99.90
12761;DHT22;6444;49.742;6.114;2024-01-10T08:11:19;0.10;99.90
12761;DHT22;6444;49.742;6.114;2024-01-10T08:13:45;0.00;99.90
12761;DHT22;6444;49.742;6.114;2024-01-10T08:16:12;-0.50;99.90
12761;DHT22;6444;49.742;6.114;2024-01-10T08:18:39;-0.20;99.90
12761;DHT22;6444;49.742;6.114;2024-01-10T08:21:05;0.00;99.90
12761;DHT22;6444;49.742;6.114;2024-01-10T08:23:32;0.00;99.90
12761;DHT22;6444;49.742;6.114;2024-01-10T08:25:58;0.10;99.90
12761;DHT22;6444;49.742;6.114;2024-01-10T08:28:25;0.50;99.90
12761;DHT22;6444;49.742;6.114;2024-01-10T08:30:52;1.00;99.90
12761;DHT22;6444;49.742;6.114;2024-01-10T08:33:18;1.30;99.90
12761;DHT22;6444;49.742;6.114;2024-01-10T08:35:46;1.40;99.90
12761;DHT22;6444;49.742;6.114;2024-01-10T08:38:12;1.30;99.90
12761;DHT22;6444;49.742;6.114;2024-01-10T08:40:39;1.10;99.90
12761;DHT22;6444;49.742;6.114;2024-01-10T08:43:06;1.30;99.90
12761;DHT22;6444;49.742;6.114;2024-01-10T08:45:32;1.50;99.90
12761;DHT22;6444;49.742;6.114;2024-01-10T08:47:59;1.20;99.90
12761;DHT22;6444;49.742;6.114;2024-01-10T08:50:25;1.10;99.90
12761;DHT22;6444;49.742;6.114;2024-01-10T08:52:52;1.20;99.90
12761;DHT22;6444;49.742;6.114;2024-01-10T08:55:19;1.30;99.90
12761;DHT22;6444;49.742;6.114;2024-01-10T08:57:45;1.40;99.90
12761;DHT22;6444;49.742;6.114;2024-01-10T09:00:14;1.60;99.90
12761;DHT22;6444;49.742;6.114;2024-01-10T09:02:39;1.40;99.90
12761;DHT22;6444;49.742;6.114;2024-01-10T09:05:05;1.10;99.90
12761;DHT22;6444;49.742;6.114;2024-01-10T09:07:32;1.50;99.90
12761;DHT22;6444;49.742;6.114;2024-01-10T09:09:59;1.80;99.90
12761;DHT22;6444;49.742;6.114;2024-01-10T09:12:25;1.90;99.90
12761;DHT22;6444;49.742;6.114;2024-01-10T09:14:52;2.20;99.90
12761;DHT22;6444;49.742;6.114;2024-01-10T09:17:19;2.40;99.90
12761;DHT22;6444;49.742;6.114;2024-01-10T09:19:45;2.60;99.90
12761;DHT22;6444;49.742;6.114;2024-01-10T09:22:13;2.40;99.90
12761;DHT22;6444;49.742;6.114;2024-01-10T09:24:39;2.40;99.90
12761;DHT22;6444;49.742;6.114;2024-01-10T09:27:06;2.60;99.90
12761;DHT22;6444;49.742;6.114;2024-01-10T09:29:34;2.60;99.90
12761;DHT22;6444;49.742;6.114;2024-01-10T09:32:00;2.60;99.90
12761;DHT22;6444;49.742;6.114;2024-01-10T09:34:26;2.80;99.90
12761;DHT22;6444;49.742;6.114;2024-01-10T09:36:53;2.90;99.70
12761;DHT22;6444;49.742;6.114;2024-01-10T09:39:20;3.00;99.90
12761;DHT22;6444;49.742;6.114;2024-01-10T09:41:47;3.20;99.90
12761;DHT22;6444;49.742;6.114;2024-01-10T09:44:13;3.30;99.90
12761;DHT22;6444;49.742;6.114;2024-01-10T09:46:40;3.50;99.90
12761;DHT22;6444;49.742;6.114;2024-01-10T09:49:06;3.80;99.90
12761;DHT22;6444;49.742;6.114;2024-01-10T09:51:33;3.30;98.50
12761;DHT22;6444;49.742;6.114;2024-01-10T09:53:59;3.20;99.20
12761;DHT22;6444;49.742;6.114;2024-01-10T09:56:26;3.30;99.20
12761;DHT22;6444;49.742;6.114;2024-01-10T09:58:53;3.50;99.50
12761;DHT22;6444;49.742;6.114;2024-01-10T10:01:19;4.00;99.20
12761;DHT22;6444;49.742;6.114;2024-01-10T10:03:46;3.90;98.40
12761;DHT22;6444;49.742;6.114;2024-01-10T10:06:13;4.10;99.20
12761;DHT22;6444;49.742;6.114;2024-01-10T10:08:40;3.30;97.40
12761;DHT22;6444;49.742;6.114;2024-01-10T10:11:06;2.90;98.00
12761;DHT22;6444;49.742;6.114;2024-01-10T10:13:33;2.20;98.10
12761;DHT22;6444;49.742;6.114;2024-01-10T10:16:03;2.10;98.10
12761;DHT22;6444;49.742;6.114;2024-01-10T10:18:30;2.30;97.90
12761;DHT22;6444;49.742;6.114;2024-01-10T10:21:12;2.40;98.10
12761;DHT22;6444;49.742;6.114;2024-01-10T10:23:39;2.40;98.30
12761;DHT22;6444;49.742;6.114;2024-01-10T10:26:14;2.70;98.90
12761;DHT22;6444;49.742;6.114;2024-01-10T10:28:40;3.40;98.90
12761;DHT22;6444;49.742;6.114;2024-01-10T10:31:07;3.90;97.80
12761;DHT22;6444;49.742;6.114;2024-01-10T10:33:33;4.10;97.90
12761;DHT22;6444;49.742;6.114;2024-01-10T10:36:00;3.60;96.90
12761;DHT22;6444;49.742;6.114;2024-01-10T10:38:27;2.80;97.60
12761;DHT22;6444;49.742;6.114;2024-01-10T10:40:53;2.70;97.80
12761;DHT22;6444;49.742;6.114;2024-01-10T10:43:20;2.90;98.20
12761;DHT22;6444;49.742;6.114;2024-01-10T10:45:49;3.20;97.90
12761;DHT22;6444;49.742;6.114;2024-01-10T10:48:17;3.10;97.30
12761;DHT22;6444;49.742;6.114;2024-01-10T10:50:43;3.20;97.50
12761;DHT22;6444;49.742;6.114;2024-01-10T10:53:09;3.30;97.40
12761;DHT22;6444;49.742;6.114;2024-01-10T10:55:37;2.60;97.60
12761;DHT22;6444;49.742;6.114;2024-01-10T10:58:03;2.50;97.60
12761;DHT22;6444;49.742;6.114;2024-01-10T11:00:33;2.00;98.10
12761;DHT22;6444;49.742;6.114;2024-01-10T11:03:00;1.70;98.30
12761;DHT22;6444;49.742;6.114;2024-01-10T11:05:26;1.30;98.40
12761;DHT22;6444;49.742;6.114;2024-01-10T11:07:53;0.70;99.40
12761;DHT22;6444;49.742;6.114;2024-01-10T11:10:21;0.60;99.90
12761;DHT22;6444;49.742;6.114;2024-01-10T11:23:58;0.60;99.90
12761;DHT22;6444;49.742;6.114;2024-01-10T11:26:23;1.00;99.90
12761;DHT22;6444;49.742;6.114;2024-01-10T11:28:50;1.00;99.90
12761;DHT22;6444;49.742;6.114;2024-01-10T11:31:26;0.80;99.90
12761;DHT22;6444;49.742;6.114;2024-01-10T11:33:44;0.70;99.90
12761;DHT22;6444;49.742;6.114;2024-01-10T11:36:13;0.80;99.90
12761;DHT22;6444;49.742;6.114;2024-01-10T11:46:43;0.70;99.90
12761;DHT22;6444;49.742;6.114;2024-01-10T11:49:10;1.00;99.90
12761;DHT22;6444;49.742;6.114;2024-01-10T11:51:36;1.00;99.90
12761;DHT22;6444;49.742;6.114;2024-01-10T11:54:03;1.40;99.90
12761;DHT22;6444;49.742;6.114;2024-01-10T11:56:42;1.40;99.90
12761;DHT22;6444;49.742;6.114;2024-01-10T12:01:36;1.50;99.90
12761;DHT22;6444;49.742;6.114;2024-01-10T12:04:02;1.70;99.90
12761;DHT22;6444;49.742;6.114;2024-01-10T12:06:29;1.80;99.90
12761;DHT22;6444;49.742;6.114;2024-01-10T12:08:55;1.80;99.90
12761;DHT22;6444;49.742;6.114;2024-01-10T12:11:23;1.90;99.90
12761;DHT22;6444;49.742;6.114;2024-01-10T12:13:49;1.80;99.90
12761;DHT22;6444;49.742;6.114;2024-01-10T12:16:16;2.00;99.80
12761;DHT22;6444;49.742;6.114;2024-01-10T12:18:43;1.60;99.90
12761;DHT22;6444;49.742;6.114;2024-01-10T12:21:10;1.30;99.90
12761;DHT22;6444;49.742;6.114;2024-01-10T12:23:36;1.20;99.90
12761;DHT22;6444;49.742;6.114;2024-01-10T12:26:03;1.50;99.90
12761;DHT22;6444;49.742;6.114;2024-01-10T12:28:30;1.80;99.90
12761;DHT22;6444;49.742;6.114;2024-01-10T12:30:57;1.80;99.90
12761;DHT22;6444;49.742;6.114;2024-01-10T12:33:23;1.50;99.90
12761;DHT22;6444;49.742;6.114;2024-01-10T12:36:09;1.60;99.90
12761;DHT22;6444;49.742;6.114;2024-01-10T12:38:38;1.80;99.90
12761;DHT22;6444;49.742;6.114;2024-01-10T12:41:05;1.80;99.90
12761;DHT22;6444;49.742;6.114;2024-01-10T12:43:31;2.30;99.90
12761;DHT22;6444;49.742;6.114;2024-01-10T12:46:08;2.60;99.90
12761;DHT22;6444;49.742;6.114;2024-01-10T12:48:35;2.20;99.90
12761;DHT22;6444;49.742;6.114;2024-01-10T12:51:04;2.10;99.90
12761;DHT22;6444;49.742;6.114;2024-01-10T12:53:38;2.30;99.90
12761;DHT22;6444;49.742;6.114;2024-01-10T12:56:04;2.30;99.90
12761;DHT22;6444;49.742;6.114;2024-01-10T12:58:31;2.20;99.90
12761;DHT22;6444;49.742;6.114;2024-01-10T13:00:58;2.90;99.90
12761;DHT22;6444;49.742;6.114;2024-01-10T13:03:25;2.90;99.90
12761;DHT22;6444;49.742;6.114;2024-01-10T13:05:51;3.20;99.90
12761;DHT22;6444;49.742;6.114;2024-01-10T13:08:18;3.10;99.90
12761;DHT22;6444;49.742;6.114;2024-01-10T13:10:47;2.70;99.90
12761;DHT22;6444;49.742;6.114;2024-01-10T13:13:14;3.00;99.90
12761;DHT22;6444;49.742;6.114;2024-01-10T13:15:41;3.20;99.90
12761;DHT22;6444;49.742;6.114;2024-01-10T13:18:07;2.80;99.90
12761;DHT22;6444;49.742;6.114;2024-01-10T13:20:34;2.90;99.90
12761;DHT22;6444;49.742;6.114;2024-01-10T13:23:00;2.90;99.90
12761;DHT22;6444;49.742;6.114;2024-01-10T13:25:27;2.90;99.90
12761;DHT22;6444;49.742;6.114;2024-01-10T13:27:54;2.70;99.90
12761;DHT22;6444;49.742;6.114;2024-01-10T13:30:20;2.60;99.90
12761;DHT22;6444;49.742;6.114;2024-01-10T13:32:47;2.50;99.90
12761;DHT22;6444;49.742;6.114;2024-01-10T13:35:14;2.30;99.90
12761;DHT22;6444;49.742;6.114;2024-01-10T13:37:40;2.10;99.90
12761;DHT22;6444;49.742;6.114;2024-01-10T13:40:07;2.20;99.90
12761;DHT22;6444;49.742;6.114;2024-01-10T13:42:34;2.00;99.90
12761;DHT22;6444;49.742;6.114;2024-01-10T13:45:00;2.40;99.90
12761;DHT22;6444;49.742;6.114;2024-01-10T13:47:27;2.80;99.90
12761;DHT22;6444;49.742;6.114;2024-01-10T13:49:54;2.60;99.90
12761;DHT22;6444;49.742;6.114;2024-01-10T13:52:20;2.70;99.90
12761;DHT22;6444;49.742;6.114;2024-01-10T13:54:47;2.40;99.90
12761;DHT22;6444;49.742;6.114;2024-01-10T13:57:14;3.40;99.90
12761;DHT22;6444;49.742;6.114;2024-01-10T13:59:41;3.30;99.90
12761;DHT22;6444;49.742;6.114;2024-01-10T14:02:07;3.80;99.90
12761;DHT22;6444;49.742;6.114;2024-01-10T14:04:34;4.00;99.90
12761;DHT22;6444;49.742;6.114;2024-01-10T14:07:01;4.30;99.90
12761;DHT22;6444;49.742;6.114;2024-01-10T14:09:28;4.30;99.90
12761;DHT22;6444;49.742;6.114;2024-01-10T14:11:55;4.60;99.90
12761;DHT22;6444;49.742;6.114;2024-01-10T14:14:21;4.70;99.90
12761;DHT22;6444;49.742;6.114;2024-01-10T14:16:48;4.60;99.30
12761;DHT22;6444;49.742;6.114;2024-01-10T14:19:15;4.60;99.90
12761;DHT22;6444;49.742;6.114;2024-01-10T14:21:46;4.60;99.90
12761;DHT22;6444;49.742;6.114;2024-01-10T14:24:14;4.60;99.90
12761;DHT22;6444;49.742;6.114;2024-01-10T14:26:41;4.50;99.90
12761;DHT22;6444;49.742;6.114;2024-01-10T14:29:07;4.30;99.90
12761;DHT22;6444;49.742;6.114;2024-01-10T14:31:33;4.20;99.90
12761;DHT22;6444;49.742;6.114;2024-01-10T14:34:01;4.20;99.90
12761;DHT22;6444;49.742;6.114;2024-01-10T14:36:27;4.20;99.90
12761;DHT22;6444;49.742;6.114;2024-01-10T14:38:54;4.30;99.90
12761;DHT22;6444;49.742;6.114;2024-01-10T14:41:21;4.20;99.90
12761;DHT22;6444;49.742;6.114;2024-01-10T14:43:48;4.30;99.90
12761;DHT22;6444;49.742;6.114;2024-01-10T14:46:15;4.00;99.90
12761;DHT22;6444;49.742;6.114;2024-01-10T14:48:42;3.90;99.90
12761;DHT22;6444;49.742;6.114;2024-01-10T14:51:09;4.30;99.90
12761;DHT22;6444;49.742;6.114;2024-01-10T14:53:36;4.20;99.90
12761;DHT22;6444;49.742;6.114;2024-01-10T14:56:03;4.20;99.90
12761;DHT22;6444;49.742;6.114;2024-01-10T14:58:30;4.50;99.90
12761;DHT22;6444;49.742;6.114;2024-01-10T15:00:58;4.40;99.90
12761;DHT22;6444;49.742;6.114;2024-01-10T15:03:23;3.90;99.90
12761;DHT22;6444;49.742;6.114;2024-01-10T15:05:50;4.10;99.90
12761;DHT22;6444;49.742;6.114;2024-01-10T15:08:17;4.50;99.90
12761;DHT22;6444;49.742;6.114;2024-01-10T15:10:44;4.50;99.90
12761;DHT22;6444;49.742;6.114;2024-01-10T15:13:11;4.90;99.90
12761;DHT22;6444;49.742;6.114;2024-01-10T15:15:40;4.90;99.90
12761;DHT22;6444;49.742;6.114;2024-01-10T15:18:07;5.00;99.90
12761;DHT22;6444;49.742;6.114;2024-01-10T15:20:33;5.20;99.90
12761;DHT22;6444;49.742;6.114;2024-01-10T15:23:00;4.80;99.90
12761;DHT22;6444;49.742;6.114;2024-01-10T15:25:27;3.40;99.90
12761;DHT22;6444;49.742;6.114;2024-01-10T15:27:54;3.40;99.90
12761;DHT22;6444;49.742;6.114;2024-01-10T15:30:21;3.80;99.90
12761;DHT22;6444;49.742;6.114;2024-01-10T15:32:48;4.20;99.90
12761;DHT22;6444;49.742;6.114;2024-01-10T15:35:14;4.50;99.90
12761;DHT22;6444;49.742;6.114;2024-01-10T15:37:41;4.60;99.90
12761;DHT22;6444;49.742;6.114;2024-01-10T15:40:08;4.30;99.90
12761;DHT22;6444;49.742;6.114;2024-01-10T15:42:35;4.30;99.90
12761;DHT22;6444;49.742;6.114;2024-01-10T15:45:01;4.50;99.90
12761;DHT22;6444;49.742;6.114;2024-01-10T15:47:28;4.60;99.90
12761;DHT22;6444;49.742;6.114;2024-01-10T15:49:55;4.30;99.90
12761;DHT22;6444;49.742;6.114;2024-01-10T15:52:22;4.20;99.90
12761;DHT22;6444;49.742;6.114;2024-01-10T15:54:48;4.10;99.90
12761;DHT22;6444;49.742;6.114;2024-01-10T15:57:15;3.80;99.90
12761;DHT22;6444;49.742;6.114;2024-01-10T15:59:42;3.60;99.90
12761;DHT22;6444;49.742;6.114;2024-01-10T16:02:09;3.50;99.90
12761;DHT22;6444;49.742;6.114;2024-01-10T16:04:36;3.40;99.90
12761;DHT22;6444;49.742;6.114;2024-01-10T16:07:02;3.40;99.90
12761;DHT22;6444;49.742;6.114;2024-01-10T16:09:30;3.30;99.90
12761;DHT22;6444;49.742;6.114;2024-01-10T16:11:56;3.30;99.90
12761;DHT22;6444;49.742;6.114;2024-01-10T16:14:23;2.60;99.90